sensor_id;sensor_type;location;lat;lon;timestamp;P1;durP1;ratioP1;P2;durP2;ratioP2
64022;SDS011;50264;52.088;5.296;2022-07-31T00:02:33;9.0;;;8.4;;
64022;SDS011;50264;52.088;5.296;2022-07-31T00:04:21;9.6;;;8.81;;
64022;SDS011;50264;52.088;5.296;2022-07-31T00:06:08;8.81;;;8.1;;
64022;SDS011;50264;52.088;5.296;2022-07-31T00:07:56;9.31;;;8.6;;
64022;SDS011;50264;52.088;5.296;2022-07-31T00:09:43;7.9;;;7.2;;
64022;SDS011;50264;52.088;5.296;2022-07-31T00:11:29;7.4;;;6.7;;
64022;SDS011;50264;52.088;5.296;2022-07-31T00:15:05;7.6;;;7.1;;
64022;SDS011;50264;52.088;5.296;2022-07-31T00:16:53;8.6;;;7.9;;
64022;SDS011;50264;52.088;5.296;2022-07-31T00:18:39;7.3;;;6.7;;
64022;SDS011;50264;52.088;5.296;2022-07-31T00:20:26;8.31;;;6.4;;
64022;SDS011;50264;52.088;5.296;2022-07-31T00:22:14;6.4;;;5.9;;
64022;SDS011;50264;52.088;5.296;2022-07-31T00:24:01;7.6;;;6.9;;
64022;SDS011;50264;52.088;5.296;2022-07-31T00:27:37;9.5;;;6.6;;
64022;SDS011;50264;52.088;5.296;2022-07-31T00:29:23;8.5;;;7.9;;
64022;SDS011;50264;52.088;5.296;2022-07-31T00:31:11;8.4;;;7.6;;
64022;SDS011;50264;52.088;5.296;2022-07-31T00:32:58;10.0;;;7.2;;
64022;SDS011;50264;52.088;5.296;2022-07-31T00:34:45;8.0;;;7.3;;
64022;SDS011;50264;52.088;5.296;2022-07-31T00:36:31;7.4;;;6.9;;
64022;SDS011;50264;52.088;5.296;2022-07-31T00:40:06;7.6;;;6.9;;
64022;SDS011;50264;52.088;5.296;2022-07-31T00:41:55;9.1;;;6.6;;
64022;SDS011;50264;52.088;5.296;2022-07-31T00:43:43;6.6;;;6.0;;
64022;SDS011;50264;52.088;5.296;2022-07-31T00:45:30;7.3;;;6.1;;
64022;SDS011;50264;52.088;5.296;2022-07-31T00:47:17;8.1;;;7.5;;
64022;SDS011;50264;52.088;5.296;2022-07-31T00:49:06;8.1;;;6.6;;
64022;SDS011;50264;52.088;5.296;2022-07-31T00:52:41;7.4;;;6.8;;
64022;SDS011;50264;52.088;5.296;2022-07-31T00:54:29;7.2;;;6.5;;
64022;SDS011;50264;52.088;5.296;2022-07-31T00:56:15;6.6;;;5.8;;
64022;SDS011;50264;52.088;5.296;2022-07-31T00:58:02;7.8;;;7.2;;
64022;SDS011;50264;52.088;5.296;2022-07-31T00:59:49;8.6;;;7.9;;
64022;SDS011;50264;52.088;5.296;2022-07-31T01:01:36;9.1;;;7.1;;
64022;SDS011;50264;52.088;5.296;2022-07-31T01:05:10;7.6;;;7.0;;
64022;SDS011;50264;52.088;5.296;2022-07-31T01:06:56;6.9;;;6.3;;
64022;SDS011;50264;52.088;5.296;2022-07-31T01:08:44;6.1;;;5.7;;
64022;SDS011;50264;52.088;5.296;2022-07-31T01:10:35;10.3;;;7.6;;
64022;SDS011;50264;52.088;5.296;2022-07-31T01:12:41;7.9;;;7.2;;
64022;SDS011;50264;52.088;5.296;2022-07-31T01:14:37;6.4;;;5.8;;
64022;SDS011;50264;52.088;5.296;2022-07-31T01:16:34;7.9;;;7.3;;
64022;SDS011;50264;52.088;5.296;2022-07-31T01:18:25;8.4;;;6.5;;
64022;SDS011;50264;52.088;5.296;2022-07-31T01:22:07;7.0;;;6.3;;
64022;SDS011;50264;52.088;5.296;2022-07-31T01:24:14;6.8;;;6.2;;
64022;SDS011;50264;52.088;5.296;2022-07-31T01:26:23;6.0;;;5.5;;
64022;SDS011;50264;52.088;5.296;2022-07-31T01:28:38;6.7;;;6.0;;
64022;SDS011;50264;52.088;5.296;2022-07-31T01:30:34;7.5;;;6.8;;
64022;SDS011;50264;52.088;5.296;2022-07-31T01:32:27;7.5;;;6.8;;
64022;SDS011;50264;52.088;5.296;2022-07-31T01:34:21;7.4;;;6.8;;
64022;SDS011;50264;52.088;5.296;2022-07-31T01:36:14;6.6;;;6.0;;
64022;SDS011;50264;52.088;5.296;2022-07-31T01:38:07;7.8;;;7.2;;
64022;SDS011;50264;52.088;5.296;2022-07-31T01:40:02;6.8;;;6.2;;
64022;SDS011;50264;52.088;5.296;2022-07-31T01:41:53;7.4;;;6.6;;
64022;SDS011;50264;52.088;5.296;2022-07-31T01:43:43;7.6;;;7.0;;
64022;SDS011;50264;52.088;5.296;2022-07-31T01:45:33;7.7;;;7.0;;
64022;SDS011;50264;52.088;5.296;2022-07-31T01:49:13;6.4;;;5.9;;
64022;SDS011;50264;52.088;5.296;2022-07-31T01:51:02;6.5;;;6.0;;
64022;SDS011;50264;52.088;5.296;2022-07-31T01:52:51;7.7;;;6.9;;
64022;SDS011;50264;52.088;5.296;2022-07-31T01:54:40;6.6;;;6.1;;
64022;SDS011;50264;52.088;5.296;2022-07-31T01:56:29;9.81;;;6.6;;
64022;SDS011;50264;52.088;5.296;2022-07-31T01:58:19;6.4;;;5.8;;
64022;SDS011;50264;52.088;5.296;2022-07-31T02:00:08;7.0;;;6.3;;
64022;SDS011;50264;52.088;5.296;2022-07-31T02:03:44;6.8;;;6.2;;
64022;SDS011;50264;52.088;5.296;2022-07-31T02:05:32;10.1;;;7.3;;
64022;SDS011;50264;52.088;5.296;2022-07-31T02:07:20;7.8;;;7.0;;
64022;SDS011;50264;52.088;5.296;2022-07-31T02:09:08;8.31;;;6.9;;
64022;SDS011;50264;52.088;5.296;2022-07-31T02:10:57;7.0;;;6.4;;
64022;SDS011;50264;52.088;5.296;2022-07-31T02:12:46;7.0;;;6.4;;
64022;SDS011;50264;52.088;5.296;2022-07-31T02:16:22;7.2;;;6.6;;
64022;SDS011;50264;52.088;5.296;2022-07-31T02:18:12;7.5;;;6.9;;
64022;SDS011;50264;52.088;5.296;2022-07-31T02:20:00;7.1;;;6.6;;
64022;SDS011;50264;52.088;5.296;2022-07-31T02:21:49;6.3;;;5.8;;
64022;SDS011;50264;52.088;5.296;2022-07-31T02:23:36;5.5;;;5.11;;
64022;SDS011;50264;52.088;5.296;2022-07-31T02:25:23;7.3;;;6.7;;
64022;SDS011;50264;52.088;5.296;2022-07-31T02:29:00;7.6;;;7.0;;
64022;SDS011;50264;52.088;5.296;2022-07-31T02:30:48;7.7;;;7.0;;
64022;SDS011;50264;52.088;5.296;2022-07-31T02:32:37;7.4;;;6.7;;
64022;SDS011;50264;52.088;5.296;2022-07-31T02:34:26;6.4;;;5.9;;
64022;SDS011;50264;52.088;5.296;2022-07-31T02:36:16;7.8;;;6.0;;
64022;SDS011;50264;52.088;5.296;2022-07-31T02:38:06;8.2;;;7.1;;
64022;SDS011;50264;52.088;5.296;2022-07-31T02:39:54;7.0;;;6.4;;
64022;SDS011;50264;52.088;5.296;2022-07-31T02:43:32;7.4;;;6.8;;
64022;SDS011;50264;52.088;5.296;2022-07-31T02:45:21;7.1;;;6.1;;
64022;SDS011;50264;52.088;5.296;2022-07-31T02:47:08;7.3;;;6.7;;
64022;SDS011;50264;52.088;5.296;2022-07-31T02:48:56;7.5;;;6.5;;
64022;SDS011;50264;52.088;5.296;2022-07-31T02:50:43;7.4;;;6.8;;
64022;SDS011;50264;52.088;5.296;2022-07-31T02:52:30;7.1;;;6.4;;
64022;SDS011;50264;52.088;5.296;2022-07-31T02:56:08;6.1;;;5.6;;
64022;SDS011;50264;52.088;5.296;2022-07-31T02:57:56;6.5;;;5.9;;
64022;SDS011;50264;52.088;5.296;2022-07-31T02:59:43;7.0;;;6.2;;
64022;SDS011;50264;52.088;5.296;2022-07-31T03:01:32;6.2;;;5.7;;
64022;SDS011;50264;52.088;5.296;2022-07-31T03:03:20;8.0;;;7.3;;
64022;SDS011;50264;52.088;5.296;2022-07-31T03:05:07;7.5;;;6.8;;
64022;SDS011;50264;52.088;5.296;2022-07-31T03:08:41;7.4;;;6.6;;
64022;SDS011;50264;52.088;5.296;2022-07-31T03:10:28;7.5;;;6.3;;
64022;SDS011;50264;52.088;5.296;2022-07-31T03:12:15;6.9;;;6.2;;
64022;SDS011;50264;52.088;5.296;2022-07-31T03:14:02;8.0;;;7.3;;
64022;SDS011;50264;52.088;5.296;2022-07-31T03:15:51;8.71;;;7.2;;
64022;SDS011;50264;52.088;5.296;2022-07-31T03:17:41;7.8;;;7.1;;
64022;SDS011;50264;52.088;5.296;2022-07-31T03:21:18;10.21;;;7.1;;
64022;SDS011;50264;52.088;5.296;2022-07-31T03:23:05;8.5;;;7.8;;
64022;SDS011;50264;52.088;5.296;2022-07-31T03:24:52;7.8;;;7.1;;
64022;SDS011;50264;52.088;5.296;2022-07-31T03:26:39;7.0;;;6.3;;
64022;SDS011;50264;52.088;5.296;2022-07-31T03:28:26;9.31;;;7.2;;
64022;SDS011;50264;52.088;5.296;2022-07-31T03:30:14;7.9;;;7.2;;
64022;SDS011;50264;52.088;5.296;2022-07-31T03:33:48;7.9;;;7.3;;
64022;SDS011;50264;52.088;5.296;2022-07-31T03:35:35;8.31;;;6.6;;
64022;SDS011;50264;52.088;5.296;2022-07-31T03:37:21;8.5;;;7.6;;
64022;SDS011;50264;52.088;5.296;2022-07-31T03:39:08;9.6;;;8.1;;
64022;SDS011;50264;52.088;5.296;2022-07-31T03:40:55;8.2;;;7.3;;
64022;SDS011;50264;52.088;5.296;2022-07-31T03:42:41;8.1;;;7.3;;
64022;SDS011;50264;52.088;5.296;2022-07-31T03:46:18;11.0;;;8.1;;
64022;SDS011;50264;52.088;5.296;2022-07-31T03:48:07;8.9;;;8.0;;
64022;SDS011;50264;52.088;5.296;2022-07-31T03:49:56;8.71;;;8.0;;
64022;SDS011;50264;52.088;5.296;2022-07-31T03:51:46;9.21;;;8.31;;
64022;SDS011;50264;52.088;5.296;2022-07-31T03:53:33;9.6;;;8.71;;
64022;SDS011;50264;52.088;5.296;2022-07-31T03:55:20;8.71;;;7.9;;
64022;SDS011;50264;52.088;5.296;2022-07-31T03:58:55;8.1;;;7.0;;
64022;SDS011;50264;52.088;5.296;2022-07-31T04:00:43;12.9;;;8.6;;
64022;SDS011;50264;52.088;5.296;2022-07-31T04:02:31;8.5;;;7.8;;
64022;SDS011;50264;52.088;5.296;2022-07-31T04:04:18;8.81;;;7.9;;
64022;SDS011;50264;52.088;5.296;2022-07-31T04:06:05;10.0;;;7.1;;
64022;SDS011;50264;52.088;5.296;2022-07-31T04:07:52;8.2;;;7.0;;
64022;SDS011;50264;52.088;5.296;2022-07-31T04:11:25;11.2;;;7.8;;
64022;SDS011;50264;52.088;5.296;2022-07-31T04:13:12;8.9;;;8.1;;
64022;SDS011;50264;52.088;5.296;2022-07-31T04:15:00;8.1;;;7.4;;
64022;SDS011;50264;52.088;5.296;2022-07-31T04:16:47;9.1;;;8.1;;
64022;SDS011;50264;52.088;5.296;2022-07-31T04:18:34;7.5;;;6.8;;
64022;SDS011;50264;52.088;5.296;2022-07-31T04:20:21;7.4;;;6.8;;
64022;SDS011;50264;52.088;5.296;2022-07-31T04:23:54;7.8;;;7.0;;
64022;SDS011;50264;52.088;5.296;2022-07-31T04:25:41;9.21;;;8.4;;
64022;SDS011;50264;52.088;5.296;2022-07-31T04:27:28;8.4;;;7.7;;
64022;SDS011;50264;52.088;5.296;2022-07-31T04:29:16;8.9;;;8.2;;
64022;SDS011;50264;52.088;5.296;2022-07-31T04:31:03;8.6;;;8.0;;
64022;SDS011;50264;52.088;5.296;2022-07-31T04:32:50;7.8;;;7.1;;
64022;SDS011;50264;52.088;5.296;2022-07-31T04:36:25;8.4;;;7.5;;
64022;SDS011;50264;52.088;5.296;2022-07-31T04:38:13;7.6;;;7.0;;
64022;SDS011;50264;52.088;5.296;2022-07-31T04:39:59;8.2;;;7.5;;
64022;SDS011;50264;52.088;5.296;2022-07-31T04:41:47;8.2;;;7.5;;
64022;SDS011;50264;52.088;5.296;2022-07-31T04:43:34;7.7;;;7.1;;
64022;SDS011;50264;52.088;5.296;2022-07-31T04:45:21;6.7;;;6.1;;
64022;SDS011;50264;52.088;5.296;2022-07-31T04:48:54;6.8;;;6.2;;
64022;SDS011;50264;52.088;5.296;2022-07-31T04:50:41;8.0;;;7.3;;
64022;SDS011;50264;52.088;5.296;2022-07-31T04:52:28;9.71;;;6.9;;
64022;SDS011;50264;52.088;5.296;2022-07-31T04:54:15;6.5;;;6.0;;
64022;SDS011;50264;52.088;5.296;2022-07-31T04:56:33;7.7;;;6.8;;
64022;SDS011;50264;52.088;5.296;2022-07-31T04:58:21;8.9;;;8.0;;
64022;SDS011;50264;52.088;5.296;2022-07-31T05:00:09;8.6;;;7.8;;
64022;SDS011;50264;52.088;5.296;2022-07-31T05:03:44;8.6;;;7.6;;
64022;SDS011;50264;52.088;5.296;2022-07-31T05:05:32;8.2;;;7.4;;
64022;SDS011;50264;52.088;5.296;2022-07-31T05:07:19;9.1;;;8.4;;
64022;SDS011;50264;52.088;5.296;2022-07-31T05:09:06;8.81;;;8.1;;
64022;SDS011;50264;52.088;5.296;2022-07-31T05:11:27;7.4;;;6.7;;
64022;SDS011;50264;52.088;5.296;2022-07-31T05:13:13;7.4;;;6.9;;
64022;SDS011;50264;52.088;5.296;2022-07-31T05:14:59;7.6;;;7.0;;
64022;SDS011;50264;52.088;5.296;2022-07-31T05:16:47;9.71;;;8.81;;
64022;SDS011;50264;52.088;5.296;2022-07-31T05:20:20;9.31;;;8.6;;
64022;SDS011;50264;52.088;5.296;2022-07-31T05:22:07;9.6;;;8.9;;
64022;SDS011;50264;52.088;5.296;2022-07-31T05:23:54;9.5;;;8.4;;
64022;SDS011;50264;52.088;5.296;2022-07-31T05:25:42;9.6;;;8.81;;
64022;SDS011;50264;52.088;5.296;2022-07-31T05:27:28;9.21;;;8.5;;
64022;SDS011;50264;52.088;5.296;2022-07-31T05:29:15;10.4;;;9.5;;
64022;SDS011;50264;52.088;5.296;2022-07-31T05:32:50;11.0;;;10.1;;
64022;SDS011;50264;52.088;5.296;2022-07-31T05:34:37;8.9;;;8.1;;
64022;SDS011;50264;52.088;5.296;2022-07-31T05:36:23;12.5;;;11.2;;
64022;SDS011;50264;52.088;5.296;2022-07-31T05:38:11;16.11;;;14.5;;
64022;SDS011;50264;52.088;5.296;2022-07-31T05:39:58;10.0;;;9.21;;
64022;SDS011;50264;52.088;5.296;2022-07-31T05:43:35;12.0;;;10.5;;
64022;SDS011;50264;52.088;5.296;2022-07-31T05:45:22;11.7;;;10.8;;
64022;SDS011;50264;52.088;5.296;2022-07-31T05:47:08;17.61;;;16.0;;
64022;SDS011;50264;52.088;5.296;2022-07-31T05:48:55;15.7;;;14.3;;
64022;SDS011;50264;52.088;5.296;2022-07-31T05:50:42;15.8;;;14.2;;
64022;SDS011;50264;52.088;5.296;2022-07-31T05:52:31;14.9;;;13.5;;
64022;SDS011;50264;52.088;5.296;2022-07-31T05:56:05;14.9;;;13.5;;
64022;SDS011;50264;52.088;5.296;2022-07-31T05:57:53;11.1;;;10.21;;
64022;SDS011;50264;52.088;5.296;2022-07-31T05:59:40;14.9;;;13.7;;
64022;SDS011;50264;52.088;5.296;2022-07-31T06:01:27;13.7;;;12.6;;
64022;SDS011;50264;52.088;5.296;2022-07-31T06:03:15;13.4;;;12.3;;
64022;SDS011;50264;52.088;5.296;2022-07-31T06:05:08;16.0;;;15.0;;
64022;SDS011;50264;52.088;5.296;2022-07-31T06:06:55;19.7;;;18.11;;
64022;SDS011;50264;52.088;5.296;2022-07-31T06:10:29;15.0;;;13.8;;
64022;SDS011;50264;52.088;5.296;2022-07-31T06:12:17;16.2;;;14.6;;
64022;SDS011;50264;52.088;5.296;2022-07-31T06:14:04;17.0;;;15.2;;
64022;SDS011;50264;52.088;5.296;2022-07-31T06:15:51;18.0;;;16.2;;
64022;SDS011;50264;52.088;5.296;2022-07-31T06:17:39;18.91;;;16.9;;
64022;SDS011;50264;52.088;5.296;2022-07-31T06:21:14;17.5;;;15.9;;
64022;SDS011;50264;52.088;5.296;2022-07-31T06:23:01;19.0;;;17.3;;
64022;SDS011;50264;52.088;5.296;2022-07-31T06:24:48;17.8;;;16.0;;
64022;SDS011;50264;52.088;5.296;2022-07-31T06:26:35;19.91;;;18.11;;
64022;SDS011;50264;52.088;5.296;2022-07-31T06:28:22;23.5;;;21.3;;
64022;SDS011;50264;52.088;5.296;2022-07-31T06:30:10;21.3;;;19.3;;
64022;SDS011;50264;52.088;5.296;2022-07-31T06:33:44;19.61;;;17.7;;
64022;SDS011;50264;52.088;5.296;2022-07-31T06:35:31;24.8;;;22.2;;
64022;SDS011;50264;52.088;5.296;2022-07-31T06:37:19;27.7;;;25.2;;
64022;SDS011;50264;52.088;5.296;2022-07-31T06:39:06;22.5;;;20.5;;
64022;SDS011;50264;52.088;5.296;2022-07-31T06:40:53;21.2;;;19.2;;
64022;SDS011;50264;52.088;5.296;2022-07-31T06:42:41;24.7;;;22.5;;
64022;SDS011;50264;52.088;5.296;2022-07-31T06:46:17;25.3;;;22.6;;
64022;SDS011;50264;52.088;5.296;2022-07-31T06:48:03;30.9;;;27.9;;
64022;SDS011;50264;52.088;5.296;2022-07-31T06:49:51;25.3;;;22.9;;
64022;SDS011;50264;52.088;5.296;2022-07-31T06:51:39;32.0;;;28.9;;
64022;SDS011;50264;52.088;5.296;2022-07-31T06:53:26;27.9;;;25.1;;
64022;SDS011;50264;52.088;5.296;2022-07-31T06:55:13;28.1;;;25.1;;
64022;SDS011;50264;52.088;5.296;2022-07-31T06:58:47;30.0;;;26.8;;
64022;SDS011;50264;52.088;5.296;2022-07-31T07:00:34;35.21;;;31.8;;
64022;SDS011;50264;52.088;5.296;2022-07-31T07:02:22;29.3;;;26.5;;
64022;SDS011;50264;52.088;5.296;2022-07-31T07:04:08;28.0;;;25.3;;
64022;SDS011;50264;52.088;5.296;2022-07-31T07:05:55;33.4;;;29.9;;
64022;SDS011;50264;52.088;5.296;2022-07-31T07:07:42;27.5;;;24.7;;
64022;SDS011;50264;52.088;5.296;2022-07-31T07:11:15;28.4;;;24.9;;
64022;SDS011;50264;52.088;5.296;2022-07-31T07:13:02;36.1;;;29.5;;
64022;SDS011;50264;52.088;5.296;2022-07-31T07:14:49;30.3;;;27.1;;
64022;SDS011;50264;52.088;5.296;2022-07-31T07:16:36;31.4;;;28.2;;
64022;SDS011;50264;52.088;5.296;2022-07-31T07:18:24;31.9;;;28.8;;
64022;SDS011;50264;52.088;5.296;2022-07-31T07:20:11;31.6;;;28.3;;
64022;SDS011;50264;52.088;5.296;2022-07-31T07:23:46;34.9;;;27.8;;
64022;SDS011;50264;52.088;5.296;2022-07-31T07:25:33;29.4;;;26.4;;
64022;SDS011;50264;52.088;5.296;2022-07-31T07:27:21;36.5;;;32.6;;
64022;SDS011;50264;52.088;5.296;2022-07-31T07:29:09;37.81;;;33.8;;
64022;SDS011;50264;52.088;5.296;2022-07-31T07:30:55;38.81;;;34.71;;
64022;SDS011;50264;52.088;5.296;2022-07-31T07:32:42;42.7;;;38.6;;
64022;SDS011;50264;52.088;5.296;2022-07-31T07:36:17;47.3;;;42.4;;
64022;SDS011;50264;52.088;5.296;2022-07-31T07:38:04;43.9;;;39.4;;
64022;SDS011;50264;52.088;5.296;2022-07-31T07:39:51;44.5;;;40.1;;
64022;SDS011;50264;52.088;5.296;2022-07-31T07:41:37;50.2;;;45.2;;
64022;SDS011;50264;52.088;5.296;2022-07-31T07:43:24;39.1;;;35.0;;
64022;SDS011;50264;52.088;5.296;2022-07-31T07:46:59;41.7;;;34.9;;
64022;SDS011;50264;52.088;5.296;2022-07-31T07:48:46;43.8;;;39.31;;
64022;SDS011;50264;52.088;5.296;2022-07-31T07:50:33;48.6;;;44.0;;
64022;SDS011;50264;52.088;5.296;2022-07-31T07:52:21;48.1;;;43.6;;
64022;SDS011;50264;52.088;5.296;2022-07-31T07:54:08;47.6;;;42.8;;
64022;SDS011;50264;52.088;5.296;2022-07-31T07:55:55;46.6;;;41.7;;
64022;SDS011;50264;52.088;5.296;2022-07-31T07:59:31;46.6;;;41.8;;
64022;SDS011;50264;52.088;5.296;2022-07-31T08:01:19;37.71;;;33.5;;
64022;SDS011;50264;52.088;5.296;2022-07-31T08:03:07;39.9;;;35.6;;
64022;SDS011;50264;52.088;5.296;2022-07-31T08:04:54;43.1;;;39.0;;
64022;SDS011;50264;52.088;5.296;2022-07-31T08:06:43;48.3;;;43.4;;
64022;SDS011;50264;52.088;5.296;2022-07-31T08:08:30;48.1;;;43.4;;
64022;SDS011;50264;52.088;5.296;2022-07-31T08:12:05;46.2;;;42.0;;
64022;SDS011;50264;52.088;5.296;2022-07-31T08:13:53;44.8;;;40.6;;
64022;SDS011;50264;52.088;5.296;2022-07-31T08:15:40;41.4;;;37.6;;
64022;SDS011;50264;52.088;5.296;2022-07-31T08:17:31;48.6;;;43.9;;
64022;SDS011;50264;52.088;5.296;2022-07-31T08:19:17;64.7;;;58.4;;
64022;SDS011;50264;52.088;5.296;2022-07-31T08:21:04;50.5;;;45.9;;
64022;SDS011;50264;52.088;5.296;2022-07-31T08:24:39;62.0;;;56.0;;
64022;SDS011;50264;52.088;5.296;2022-07-31T08:26:26;52.5;;;47.1;;
64022;SDS011;50264;52.088;5.296;2022-07-31T08:28:13;56.4;;;50.7;;
64022;SDS011;50264;52.088;5.296;2022-07-31T08:30:00;48.4;;;43.5;;
64022;SDS011;50264;52.088;5.296;2022-07-31T08:31:48;50.1;;;44.6;;
64022;SDS011;50264;52.088;5.296;2022-07-31T08:33:34;57.2;;;51.4;;
64022;SDS011;50264;52.088;5.296;2022-07-31T08:37:07;50.1;;;44.7;;
64022;SDS011;50264;52.088;5.296;2022-07-31T08:38:55;57.1;;;51.3;;
64022;SDS011;50264;52.088;5.296;2022-07-31T08:40:41;65.2;;;53.3;;
64022;SDS011;50264;52.088;5.296;2022-07-31T08:42:28;64.2;;;57.7;;
64022;SDS011;50264;52.088;5.296;2022-07-31T08:44:15;52.6;;;46.9;;
64022;SDS011;50264;52.088;5.296;2022-07-31T08:46:03;66.91;;;60.3;;
64022;SDS011;50264;52.088;5.296;2022-07-31T08:49:41;65.7;;;58.8;;
64022;SDS011;50264;52.088;5.296;2022-07-31T08:51:31;69.8;;;63.0;;
64022;SDS011;50264;52.088;5.296;2022-07-31T08:53:21;62.6;;;56.5;;
64022;SDS011;50264;52.088;5.296;2022-07-31T08:55:10;74.11;;;66.41;;
64022;SDS011;50264;52.088;5.296;2022-07-31T08:56:58;74.2;;;67.3;;
64022;SDS011;50264;52.088;5.296;2022-07-31T08:58:44;97.4;;;89.1;;
64022;SDS011;50264;52.088;5.296;2022-07-31T09:02:19;73.41;;;66.6;;
64022;SDS011;50264;52.088;5.296;2022-07-31T09:04:06;73.41;;;66.6;;
64022;SDS011;50264;52.088;5.296;2022-07-31T09:05:54;76.91;;;69.41;;
64022;SDS011;50264;52.088;5.296;2022-07-31T09:07:41;78.91;;;71.41;;
64022;SDS011;50264;52.088;5.296;2022-07-31T09:09:28;90.1;;;82.0;;
64022;SDS011;50264;52.088;5.296;2022-07-31T09:11:17;86.0;;;77.7;;
64022;SDS011;50264;52.088;5.296;2022-07-31T09:14:59;85.2;;;77.2;;
64022;SDS011;50264;52.088;5.296;2022-07-31T09:16:47;96.1;;;87.0;;
64022;SDS011;50264;52.088;5.296;2022-07-31T09:18:34;86.2;;;78.41;;
64022;SDS011;50264;52.088;5.296;2022-07-31T09:20:21;93.8;;;85.4;;
64022;SDS011;50264;52.088;5.296;2022-07-31T09:22:18;109.7;;;99.3;;
64022;SDS011;50264;52.088;5.296;2022-07-31T09:24:06;83.9;;;76.3;;
64022;SDS011;50264;52.088;5.296;2022-07-31T09:25:54;76.0;;;68.7;;
64022;SDS011;50264;52.088;5.296;2022-07-31T09:27:45;109.0;;;97.5;;
64022;SDS011;50264;52.088;5.296;2022-07-31T09:31:22;106.7;;;97.1;;
64022;SDS011;50264;52.088;5.296;2022-07-31T09:33:18;93.9;;;85.7;;
64022;SDS011;50264;52.088;5.296;2022-07-31T09:35:06;97.4;;;88.7;;
64022;SDS011;50264;52.088;5.296;2022-07-31T09:36:54;88.5;;;80.91;;
64022;SDS011;50264;52.088;5.296;2022-07-31T09:38:42;93.7;;;84.0;;
64022;SDS011;50264;52.088;5.296;2022-07-31T09:40:32;90.6;;;82.5;;
64022;SDS011;50264;52.088;5.296;2022-07-31T09:44:08;94.4;;;85.2;;
64022;SDS011;50264;52.088;5.296;2022-07-31T09:45:56;125.0;;;113.3;;
64022;SDS011;50264;52.088;5.296;2022-07-31T09:47:45;92.0;;;84.0;;
64022;SDS011;50264;52.088;5.296;2022-07-31T09:49:33;91.7;;;84.1;;
64022;SDS011;50264;52.088;5.296;2022-07-31T09:51:21;105.4;;;94.6;;
64022;SDS011;50264;52.088;5.296;2022-07-31T09:53:09;91.2;;;83.2;;
64022;SDS011;50264;52.088;5.296;2022-07-31T09:55:00;126.0;;;113.1;;
64022;SDS011;50264;52.088;5.296;2022-07-31T09:58:39;99.7;;;91.1;;
64022;SDS011;50264;52.088;5.296;2022-07-31T10:00:28;101.9;;;93.3;;
64022;SDS011;50264;52.088;5.296;2022-07-31T10:02:15;169.7;;;138.5;;
64022;SDS011;50264;52.088;5.296;2022-07-31T10:04:05;98.9;;;90.1;;
64022;SDS011;50264;52.088;5.296;2022-07-31T10:05:54;137.9;;;109.2;;
64022;SDS011;50264;52.088;5.296;2022-07-31T10:07:42;135.0;;;118.6;;
64022;SDS011;50264;52.088;5.296;2022-07-31T10:11:19;87.5;;;80.41;;
64022;SDS011;50264;52.088;5.296;2022-07-31T10:13:09;139.6;;;125.1;;
64022;SDS011;50264;52.088;5.296;2022-07-31T10:15:02;133.5;;;118.7;;
64022;SDS011;50264;52.088;5.296;2022-07-31T10:16:52;159.31;;;126.9;;
64022;SDS011;50264;52.088;5.296;2022-07-31T10:18:45;185.3;;;133.2;;
64022;SDS011;50264;52.088;5.296;2022-07-31T10:20:38;170.6;;;119.7;;
64022;SDS011;50264;52.088;5.296;2022-07-31T10:22:29;134.31;;;108.5;;
64022;SDS011;50264;52.088;5.296;2022-07-31T10:24:21;234.9;;;149.21;;
64022;SDS011;50264;52.088;5.296;2022-07-31T10:27:58;166.8;;;123.7;;
64022;SDS011;50264;52.088;5.296;2022-07-31T10:29:45;174.2;;;109.0;;
64022;SDS011;50264;52.088;5.296;2022-07-31T10:31:33;139.31;;;124.1;;
64022;SDS011;50264;52.088;5.296;2022-07-31T10:33:21;148.71;;;127.5;;
64022;SDS011;50264;52.088;5.296;2022-07-31T10:35:08;192.7;;;148.31;;
64022;SDS011;50264;52.088;5.296;2022-07-31T10:36:58;190.6;;;143.6;;
64022;SDS011;50264;52.088;5.296;2022-07-31T10:38:55;118.9;;;105.9;;
64022;SDS011;50264;52.088;5.296;2022-07-31T10:42:42;150.71;;;136.31;;
64022;SDS011;50264;52.088;5.296;2022-07-31T10:44:35;140.0;;;124.7;;
64022;SDS011;50264;52.088;5.296;2022-07-31T10:46:30;161.0;;;119.1;;
64022;SDS011;50264;52.088;5.296;2022-07-31T10:48:18;139.6;;;125.9;;
64022;SDS011;50264;52.088;5.296;2022-07-31T10:50:06;130.4;;;116.9;;
64022;SDS011;50264;52.088;5.296;2022-07-31T10:52:05;98.7;;;90.5;;
64022;SDS011;50264;52.088;5.296;2022-07-31T10:53:53;206.9;;;125.0;;
64022;SDS011;50264;52.088;5.296;2022-07-31T10:55:42;161.6;;;131.6;;
64022;SDS011;50264;52.088;5.296;2022-07-31T10:59:26;131.7;;;109.4;;
64022;SDS011;50264;52.088;5.296;2022-07-31T11:01:14;121.6;;;109.2;;
64022;SDS011;50264;52.088;5.296;2022-07-31T11:03:10;114.6;;;105.2;;
64022;SDS011;50264;52.088;5.296;2022-07-31T11:05:17;116.4;;;103.7;;
64022;SDS011;50264;52.088;5.296;2022-07-31T11:07:12;134.31;;;122.2;;
64022;SDS011;50264;52.088;5.296;2022-07-31T11:09:00;120.0;;;107.7;;
64022;SDS011;50264;52.088;5.296;2022-07-31T11:10:48;116.9;;;106.0;;
64022;SDS011;50264;52.088;5.296;2022-07-31T11:12:36;128.5;;;116.0;;
64022;SDS011;50264;52.088;5.296;2022-07-31T11:16:20;95.0;;;87.1;;
64022;SDS011;50264;52.088;5.296;2022-07-31T11:18:10;120.8;;;108.5;;
64022;SDS011;50264;52.088;5.296;2022-07-31T11:19:58;133.31;;;119.1;;
64022;SDS011;50264;52.088;5.296;2022-07-31T11:21:44;168.2;;;132.6;;
64022;SDS011;50264;52.088;5.296;2022-07-31T11:23:32;205.7;;;152.31;;
64022;SDS011;50264;52.088;5.296;2022-07-31T11:25:20;187.6;;;142.31;;
64022;SDS011;50264;52.088;5.296;2022-07-31T11:27:08;153.21;;;137.31;;
64022;SDS011;50264;52.088;5.296;2022-07-31T11:30:50;131.31;;;118.1;;
64022;SDS011;50264;52.088;5.296;2022-07-31T11:32:37;136.5;;;122.5;;
64022;SDS011;50264;52.088;5.296;2022-07-31T11:34:25;182.1;;;124.8;;
64022;SDS011;50264;52.088;5.296;2022-07-31T11:36:13;142.71;;;127.4;;
64022;SDS011;50264;52.088;5.296;2022-07-31T11:38:00;119.3;;;102.7;;
64022;SDS011;50264;52.088;5.296;2022-07-31T11:39:48;161.31;;;126.2;;
64022;SDS011;50264;52.088;5.296;2022-07-31T11:43:24;120.8;;;107.9;;
64022;SDS011;50264;52.088;5.296;2022-07-31T11:45:14;110.0;;;101.4;;
64022;SDS011;50264;52.088;5.296;2022-07-31T11:47:02;109.6;;;99.8;;
64022;SDS011;50264;52.088;5.296;2022-07-31T11:48:48;234.8;;;151.81;;
64022;SDS011;50264;52.088;5.296;2022-07-31T11:50:38;141.9;;;127.4;;
64022;SDS011;50264;52.088;5.296;2022-07-31T11:52:24;175.4;;;137.4;;
64022;SDS011;50264;52.088;5.296;2022-07-31T11:54:20;260.5;;;163.1;;
64022;SDS011;50264;52.088;5.296;2022-07-31T11:57:55;211.5;;;160.21;;
64022;SDS011;50264;52.088;5.296;2022-07-31T11:59:42;207.2;;;150.5;;
64022;SDS011;50264;52.088;5.296;2022-07-31T12:01:29;207.2;;;150.5;;
64022;SDS011;50264;52.088;5.296;2022-07-31T12:03:17;134.1;;;119.3;;
64022;SDS011;50264;52.088;5.296;2022-07-31T12:05:06;182.2;;;118.5;;
64022;SDS011;50264;52.088;5.296;2022-07-31T12:06:55;189.8;;;128.4;;
64022;SDS011;50264;52.088;5.296;2022-07-31T12:10:29;261.8;;;145.21;;
64022;SDS011;50264;52.088;5.296;2022-07-31T12:12:16;121.8;;;109.8;;
64022;SDS011;50264;52.088;5.296;2022-07-31T12:14:03;170.4;;;132.5;;
64022;SDS011;50264;52.088;5.296;2022-07-31T12:15:52;273.2;;;149.4;;
64022;SDS011;50264;52.088;5.296;2022-07-31T12:17:44;227.5;;;135.2;;
64022;SDS011;50264;52.088;5.296;2022-07-31T12:19:32;243.9;;;141.21;;
64022;SDS011;50264;52.088;5.296;2022-07-31T12:23:16;145.6;;;117.1;;
64022;SDS011;50264;52.088;5.296;2022-07-31T12:25:03;374.6;;;169.1;;
64022;SDS011;50264;52.088;5.296;2022-07-31T12:26:54;305.3;;;157.0;;
64022;SDS011;50264;52.088;5.296;2022-07-31T12:28:42;206.1;;;141.4;;
64022;SDS011;50264;52.088;5.296;2022-07-31T12:30:29;228.1;;;123.0;;
64022;SDS011;50264;52.088;5.296;2022-07-31T12:32:22;321.91;;;158.71;;
64022;SDS011;50264;52.088;5.296;2022-07-31T12:34:11;227.7;;;132.0;;
64022;SDS011;50264;52.088;5.296;2022-07-31T12:36:11;255.5;;;132.5;;
64022;SDS011;50264;52.088;5.296;2022-07-31T12:39:51;318.61;;;151.6;;